Time;durP1;ratioP1;P1;durP2;ratioP2;P2;SDS_P1;SDS_P2;PMS_P1;PMS_P2;Temp;Humidity;BMP_temperature;BMP_pressure;BME280_temperature;BME280_humidity;BME280_pressure;Samples;Min_cycle;Max_cycle;Signal;HPM_P1;HPM_P2
2022/08/13 04:02:42;;;;;;;;;;;;;;;17.71;45.40;98883.53;2599736;47;20639;-66
2022/08/13 04:05:16;;;;;;;;;;;;;;;17.71;45.01;98880.88;2618591;54;19939;-66
2022/08/13 04:08:05;;;;;;;;;;;;;;;17.73;45.56;98882.25;2618234;54;19939;-66
2022/08/13 04:10:42;;;;;;;;;;;;;;;17.75;45.32;98887.41;2618259;54;19954;-67
2022/08/13 04:13:22;;;;;;;;;;;;;;;17.75;45.26;98882.06;2618262;54;19942;-66
2022/08/13 04:16:13;;;;;;;;;;;;;;;17.69;45.54;98886.47;2619467;39;20440;-65
2022/08/13 04:18:46;;;;;;;;;;;;;;;17.60;45.20;98887.88;2622263;39;20353;-66
2022/08/13 04:21:17;;;;;;;;;;;;;;;17.51;45.65;98882.09;2620402;54;19999;-66
2022/08/13 04:23:51;;;;;;;;;;;;;;;17.42;45.91;98885.34;2619037;54;19957;-66
2022/08/13 04:26:24;;;;;;;;;;;;;;;17.27;46.58;98889.34;2618629;54;19943;-67
2022/08/13 04:29:02;;;;;;;;;;;;;;;17.24;46.51;98891.66;2618680;54;19946;-66
2022/08/13 04:31:31;;;;;;;;;;;;;;;17.25;46.76;98890.59;2619744;54;19951;-66
2022/08/13 04:34:23;;;;;;;;;;;;;;;17.16;46.47;98887.47;2619312;54;19938;-66
2022/08/13 04:37:10;;;;;;;;;;;;;;;17.10;47.02;98896.41;2618969;54;19946;-67
2022/08/13 04:39:49;;;;;;;;;;;;;;;16.96;47.43;98884.34;2619566;39;20292;-66
2022/08/13 04:42:53;;;;;;;;;;;;;;;16.96;47.45;98893.16;2618911;54;20433;-66
2022/08/13 04:45:23;;;;;;;;;;;;;;;17.07;47.06;98903.03;2618776;47;19942;-66
2022/08/13 04:47:53;;;;;;;;;;;;;;;17.09;47.50;98900.13;2618224;51;19947;-67
2022/08/13 04:50:26;;;;;;;;;;;;;;;17.08;47.10;98903.84;2618946;54;19957;-67
2022/08/13 04:52:57;;;;;;;;;;;;;;;17.11;47.72;98914.06;2619040;54;19938;-65
2022/08/13 04:55:27;;;;;;;;;;;;;;;17.25;47.28;98904.75;2619259;54;19946;-66
2022/08/13 04:58:17;;;;;;;;;;;;;;;17.38;46.94;98901.03;2618501;47;20050;-66
2022/08/13 05:00:48;;;;;;;;;;;;;;;17.47;47.06;98910.34;2618812;54;19939;-66
2022/08/13 05:03:21;;;;;;;;;;;;;;;17.51;46.71;98905.31;2619110;54;19946;-67
2022/08/13 05:06:04;;;;;;;;;;;;;;;17.53;46.60;98908.59;2619056;54;19939;-66
2022/08/13 05:08:33;;;;;;;;;;;;;;;17.51;46.69;98902.63;2619779;39;20334;-66
2022/08/13 05:11:03;;;;;;;;;;;;;;;17.55;46.50;98904.63;2618712;54;20457;-66
2022/08/13 05:13:50;;;;;;;;;;;;;;;17.58;46.29;98904.13;2619240;54;19946;-66
2022/08/13 05:16:25;;;;;;;;;;;;;;;17.63;46.59;98910.66;2618303;47;19954;-66
2022/08/13 05:18:57;;;;;;;;;;;;;;;17.71;46.51;98897.72;2618400;54;20418;-65
2022/08/13 05:21:32;;;;;;;;;;;;;;;17.76;46.21;98899.75;2619404;54;19975;-66
2022/08/13 05:24:22;;;;;;;;;;;;;;;17.90;46.07;98900.28;2619927;39;20318;-66
2022/08/13 05:27:13;;;;;;;;;;;;;;;17.98;45.71;98908.72;2618987;54;20521;-66
2022/08/13 05:29:44;;;;;;;;;;;;;;;17.99;45.90;98910.34;2619271;54;19953;-66
2022/08/13 05:32:38;;;;;;;;;;;;;;;18.00;45.59;98895.94;2618998;54;20026;-66
2022/08/13 05:35:18;;;;;;;;;;;;;;;18.09;45.65;98899.03;2619046;54;19938;-66
2022/08/13 05:38:10;;;;;;;;;;;;;;;18.23;45.79;98899.56;2618895;54;20472;-66
2022/08/13 05:40:50;;;;;;;;;;;;;;;18.30;44.97;98901.03;2619211;54;19973;-66
2022/08/13 05:43:23;;;;;;;;;;;;;;;18.32;44.89;98904.25;2618721;47;19943;-65
2022/08/13 05:45:57;;;;;;;;;;;;;;;18.39;45.09;98909.47;2619206;54;20301;-66
2022/08/13 05:48:36;;;;;;;;;;;;;;;18.48;44.69;98915.25;2619039;54;19938;-66
2022/08/13 05:51:08;;;;;;;;;;;;;;;18.52;44.53;98913.72;2619237;54;19959;-66
2022/08/13 05:53:42;;;;;;;;;;;;;;;18.62;44.57;98915.78;2618488;54;19966;-66
2022/08/13 05:56:35;;;;;;;;;;;;;;;18.60;44.54;98910.66;2618972;54;20005;-66
2022/08/13 05:59:05;;;;;;;;;;;;;;;18.73;44.18;98906.88;2619108;54;20494;-66
2022/08/13 06:04:40;;;;;;;;;;;;;;;19.07;44.09;98905.00;2617484;47;19947;-66
2022/08/13 06:07:11;;;;;;;;;;;;;;;19.21;44.14;98900.91;2618688;54;19950;-65
2022/08/13 06:09:43;;;;;;;;;;;;;;;19.32;43.53;98903.75;2619068;54;19946;-66
2022/08/13 06:12:14;;;;;;;;;;;;;;;19.38;43.43;98902.75;2618626;47;19942;-66
2022/08/13 06:15:03;;;;;;;;;;;;;;;19.51;43.23;98905.06;2619076;54;19943;-66
2022/08/13 06:17:37;;;;;;;;;;;;;;;19.59;43.05;98911.88;2621490;47;19946;-66
2022/08/13 06:20:09;;;;;;;;;;;;;;;19.62;42.85;98904.19;2622618;54;20426;-66
2022/08/13 06:22:40;;;;;;;;;;;;;;;19.68;42.38;98905.88;2622260;47;19953;-66
2022/08/13 06:25:13;;;;;;;;;;;;;;;19.77;42.10;98912.41;2622426;54;19957;-66
2022/08/13 06:27:43;;;;;;;;;;;;;;;19.87;42.21;98903.69;2622987;47;19989;-66
2022/08/13 06:30:25;;;;;;;;;;;;;;;19.99;42.34;98903.53;2623577;54;20001;-66
2022/08/13 06:33:02;;;;;;;;;;;;;;;20.07;41.74;98895.06;2622352;54;19939;-66
2022/08/13 06:35:53;;;;;;;;;;;;;;;20.11;41.79;98901.53;2622287;39;20032;-66
2022/08/13 06:38:25;;;;;;;;;;;;;;;20.23;41.98;98901.38;2622023;54;20106;-67
2022/08/13 06:41:02;;;;;;;;;;;;;;;20.35;41.69;98910.09;2621801;47;19994;-66
2022/08/13 06:43:32;;;;;;;;;;;;;;;20.57;41.27;98912.75;2623908;54;19946;-66
2022/08/13 06:46:22;;;;;;;;;;;;;;;20.75;41.09;98904.31;2623768;54;19947;-67
2022/08/13 06:48:57;;;;;;;;;;;;;;;20.92;40.19;98914.13;2623645;54;19946;-66
2022/08/13 06:51:26;;;;;;;;;;;;;;;20.94;40.64;98914.66;2623034;54;19938;-66
2022/08/13 06:53:56;;;;;;;;;;;;;;;21.03;39.95;98911.25;2623261;54;20521;-66
2022/08/13 06:56:49;;;;;;;;;;;;;;;21.06;40.05;98911.78;2622808;54;19946;-66
2022/08/13 06:59:39;;;;;;;;;;;;;;;21.18;39.92;98915.91;2621022;54;19951;-66
2022/08/13 07:02:29;;;;;;;;;;;;;;;21.26;39.85;98920.81;2620914;54;19939;-65
2022/08/13 07:04:58;;;;;;;;;;;;;;;21.31;39.88;98917.38;2619167;54;19939;-66
2022/08/13 07:07:31;;;;;;;;;;;;;;;21.43;40.19;98914.47;2619180;54;20455;-66
2022/08/13 07:10:02;;;;;;;;;;;;;;;21.61;39.83;98913.25;2618427;47;19946;-67
2022/08/13 07:12:41;;;;;;;;;;;;;;;21.77;39.06;98910.34;2618832;54;19946;-66
2022/08/13 07:15:15;;;;;;;;;;;;;;;21.86;39.03;98910.66;2618675;54;19943;-66
2022/08/13 07:18:05;;;;;;;;;;;;;;;21.88;39.07;98910.38;2618736;54;19939;-66
2022/08/13 07:20:35;;;;;;;;;;;;;;;21.99;39.05;98910.16;2618746;54;19946;-66
2022/08/13 07:23:06;;;;;;;;;;;;;;;22.12;38.84;98922.31;2618399;51;19947;-67
2022/08/13 07:25:57;;;;;;;;;;;;;;;22.25;38.65;98915.66;2619025;47;20018;-66
2022/08/13 07:28:31;;;;;;;;;;;;;;;22.29;38.37;98914.06;2619482;54;19946;-66
2022/08/13 07:31:16;;;;;;;;;;;;;;;22.41;38.58;98916.47;2620270;39;20496;-66
2022/08/13 07:33:50;;;;;;;;;;;;;;;22.54;38.02;98913.28;2619678;54;19939;-66
2022/08/13 07:36:27;;;;;;;;;;;;;;;22.74;37.50;98916.00;2619488;54;20002;-66
2022/08/13 07:38:58;;;;;;;;;;;;;;;22.89;37.38;98915.16;2619969;39;20366;-66
2022/08/13 07:41:28;;;;;;;;;;;;;;;22.98;37.14;98910.06;2619155;54;19950;-66
2022/08/13 07:44:02;;;;;;;;;;;;;;;23.07;36.86;98911.16;2619041;54;19946;-67
2022/08/13 07:46:42;;;;;;;;;;;;;;;23.18;36.63;98911.94;2617953;54;19942;-66
2022/08/13 07:49:26;;;;;;;;;;;;;;;23.32;36.75;98904.09;2618214;46;19961;-66
2022/08/13 07:52:13;;;;;;;;;;;;;;;23.50;36.37;98903.50;2619555;54;19938;-66
2022/08/13 07:54:45;;;;;;;;;;;;;;;23.66;36.09;98905.09;2619955;54;19945;-66
2022/08/13 07:57:18;;;;;;;;;;;;;;;23.85;35.38;98907.19;2618837;47;19946;-66
2022/08/13 08:00:13;;;;;;;;;;;;;;;23.93;35.17;98904.72;2619537;54;19938;-66
2022/08/13 08:02:49;;;;;;;;;;;;;;;23.99;35.35;98894.69;2618629;54;19969;-66
2022/08/13 08:05:22;;;;;;;;;;;;;;;24.14;35.34;98899.22;2619562;54;20014;-66
2022/08/13 08:07:53;;;;;;;;;;;;;;;24.29;34.80;98898.28;2619426;54;19953;-66
2022/08/13 08:10:37;;;;;;;;;;;;;;;24.35;34.39;98900.69;2619653;54;19939;-66
2022/08/13 08:13:06;;;;;;;;;;;;;;;24.41;34.37;98896.91;2619623;54;19946;-66
2022/08/13 08:15:42;;;;;;;;;;;;;;;24.57;34.25;98894.06;2619305;54;19957;-68
2022/08/13 08:18:33;;;;;;;;;;;;;;;24.62;33.98;98885.94;2619721;54;19950;-66
2022/08/13 08:21:24;;;;;;;;;;;;;;;24.67;33.55;98889.41;2619732;54;20473;-67
2022/08/13 08:24:14;;;;;;;;;;;;;;;24.68;33.38;98896.41;2619608;54;19970;-67
2022/08/13 08:27:00;;;;;;;;;;;;;;;24.76;32.95;98891.50;2619044;54;19950;-67
2022/08/13 08:29:31;;;;;;;;;;;;;;;24.86;32.74;98886.00;2619469;54;19939;-66
2022/08/13 08:32:23;;;;;;;;;;;;;;;24.96;32.88;98886.72;2619862;54;19954;-67
2022/08/13 08:35:05;;;;;;;;;;;;;;;25.00;33.00;98878.84;2620338;54;20111;-67
2022/08/13 08:43:27;;;;;;;;;;;;;;;25.15;32.64;98878.72;2619771;54;19942;-67
2022/08/13 08:46:03;;;;;;;;;;;;;;;25.24;32.26;98878.91;2619687;54;19947;-66
2022/08/13 08:48:45;;;;;;;;;;;;;;;25.37;32.41;98872.00;2620888;54;19938;-67
2022/08/13 08:51:21;;;;;;;;;;;;;;;25.41;32.66;98865.72;2621678;47;20045;-68
2022/08/13 08:53:54;;;;;;;;;;;;;;;25.53;32.05;98868.03;2620221;54;19999;-64
2022/08/13 08:56:43;;;;;;;;;;;;;;;25.70;31.67;98862.13;2619553;54;19954;-68
2022/08/13 08:59:27;;;;;;;;;;;;;;;25.86;31.58;98869.00;2619868;54;19946;-65
2022/08/13 09:01:59;;;;;;;;;;;;;;;25.99;30.88;98872.88;2619823;54;19938;-66
2022/08/13 09:04:33;;;;;;;;;;;;;;;25.90;30.82;98867.31;2619623;54;19985;-65
2022/08/13 09:07:21;;;;;;;;;;;;;;;25.98;31.29;98870.47;2619493;54;19961;-65
2022/08/13 09:09:53;;;;;;;;;;;;;;;26.10;30.84;98871.63;2619544;54;19938;-66
2022/08/13 09:12:25;;;;;;;;;;;;;;;26.10;30.79;98865.41;2619012;54;19945;-66
2022/08/13 09:14:57;;;;;;;;;;;;;;;26.15;30.42;98860.72;2618399;47;19954;-67
2022/08/13 09:17:28;;;;;;;;;;;;;;;26.21;30.37;98863.34;2618586;54;20038;-68
2022/08/13 09:20:17;;;;;;;;;;;;;;;26.17;30.81;98860.44;2619776;54;20423;-67
2022/08/13 09:22:49;;;;;;;;;;;;;;;26.26;31.00;98860.59;2619323;54;19950;-66
2022/08/13 09:25:26;;;;;;;;;;;;;;;26.44;30.24;98862.47;2619600;54;19950;-66
2022/08/13 09:27:57;;;;;;;;;;;;;;;26.40;30.08;98856.81;2619806;54;20002;-66
2022/08/13 09:30:42;;;;;;;;;;;;;;;26.35;30.57;98845.25;2619370;54;19947;-66
2022/08/13 09:33:17;;;;;;;;;;;;;;;26.42;30.37;98856.53;2619377;54;19939;-67
2022/08/13 09:36:11;;;;;;;;;;;;;;;26.46;30.25;98854.88;2619295;54;19946;-67
2022/08/13 09:38:48;;;;;;;;;;;;;;;26.61;29.59;98853.81;2619749;54;19946;-67
2022/08/13 09:41:22;;;;;;;;;;;;;;;26.73;29.36;98853.34;2620864;54;20441;-67
2022/08/13 09:43:52;;;;;;;;;;;;;;;26.68;29.61;98860.47;2622646;47;19945;-67
2022/08/13 09:46:24;;;;;;;;;;;;;;;26.80;29.39;98857.28;2619157;39;20394;-67
2022/08/13 09:48:58;;;;;;;;;;;;;;;26.54;29.12;98866.97;2620825;54;20006;-67
2022/08/13 09:51:34;;;;;;;;;;;;;;;26.54;29.64;98859.63;2621812;54;19939;-67
2022/08/13 09:54:24;;;;;;;;;;;;;;;26.64;29.97;98845.88;2619724;54;19959;-67
2022/08/13 09:56:58;;;;;;;;;;;;;;;26.68;29.67;98840.69;2619189;54;19958;-67
2022/08/13 09:59:29;;;;;;;;;;;;;;;26.83;29.51;98840.41;2619695;54;19939;-67
2022/08/13 10:02:05;;;;;;;;;;;;;;;26.89;29.23;98843.84;2620186;39;20345;-67
2022/08/13 10:04:37;;;;;;;;;;;;;;;27.08;29.03;98844.56;2619568;46;19955;-67
2022/08/13 10:07:12;;;;;;;;;;;;;;;27.25;28.52;98840.50;2619344;54;20481;-67
2022/08/13 10:09:49;;;;;;;;;;;;;;;27.28;29.13;98838.00;2619298;54;19939;-66
2022/08/13 10:12:39;;;;;;;;;;;;;;;27.31;28.84;98833.84;2620414;54;19950;-66
2022/08/13 10:15:09;;;;;;;;;;;;;;;27.25;28.68;98830.44;2621560;54;19962;-66
2022/08/13 10:17:52;;;;;;;;;;;;;;;27.51;27.75;98832.63;2616711;54;20426;-66
2022/08/13 10:20:24;;;;;;;;;;;;;;;27.47;28.34;98834.34;2618230;54;19945;-67
2022/08/13 10:22:56;;;;;;;;;;;;;;;27.42;28.12;98830.63;2617842;54;20441;-67
2022/08/13 10:25:27;;;;;;;;;;;;;;;27.41;28.10;98828.22;2617408;54;19977;-67
2022/08/13 10:28:18;;;;;;;;;;;;;;;27.26;28.62;98821.19;2617722;54;19947;-66
2022/08/13 10:30:59;;;;;;;;;;;;;;;27.28;28.39;98810.03;2617892;47;19947;-66
2022/08/13 10:33:52;;;;;;;;;;;;;;;27.42;28.87;98817.06;2617156;47;20034;-67
2022/08/13 10:36:21;;;;;;;;;;;;;;;27.30;28.73;98811.34;2617734;54;19981;-67
2022/08/13 10:38:58;;;;;;;;;;;;;;;27.19;28.28;98782.00;2617758;54;19946;-67
2022/08/13 10:41:28;;;;;;;;;;;;;;;27.52;28.31;98805.19;2617883;54;20422;-67
2022/08/13 10:43:59;;;;;;;;;;;;;;;27.53;28.01;98811.44;2617683;54;19954;-67
2022/08/13 10:46:31;;;;;;;;;;;;;;;27.58;27.85;98817.53;2617516;54;20016;-68
2022/08/13 10:49:06;;;;;;;;;;;;;;;27.36;28.28;98802.00;2617495;54;19947;-68
2022/08/13 10:51:35;;;;;;;;;;;;;;;27.28;27.66;98807.34;2618288;39;20345;-67
2022/08/13 10:54:27;;;;;;;;;;;;;;;27.18;28.18;98794.75;2617862;54;19969;-66
2022/08/13 10:57:00;;;;;;;;;;;;;;;27.28;28.06;98789.13;2616900;54;19951;-67
2022/08/13 10:59:30;;;;;;;;;;;;;;;27.41;27.74;98795.66;2618403;54;19950;-67
2022/08/13 11:02:06;;;;;;;;;;;;;;;27.57;27.28;98796.94;2618528;54;19953;-67
2022/08/13 11:04:41;;;;;;;;;;;;;;;27.71;27.25;98798.81;2618822;31;20339;-67
2022/08/13 11:07:20;;;;;;;;;;;;;;;27.74;27.08;98792.81;2618378;54;19946;-66
2022/08/13 11:09:52;;;;;;;;;;;;;;;27.91;26.28;98792.97;2618304;54;19946;-67
2022/08/13 11:12:22;;;;;;;;;;;;;;;27.87;26.36;98795.47;2618492;54;19990;-66
2022/08/13 11:14:55;;;;;;;;;;;;;;;27.93;25.78;98788.03;2618539;54;19939;-67
2022/08/13 11:17:24;;;;;;;;;;;;;;;28.07;25.90;98791.50;2618335;54;20426;-68
2022/08/13 11:20:18;;;;;;;;;;;;;;;28.23;25.69;98788.41;2618533;54;19969;-66
2022/08/13 11:22:53;;;;;;;;;;;;;;;28.31;25.54;98780.31;2618828;54;19946;-67
2022/08/13 11:25:26;;;;;;;;;;;;;;;28.28;25.09;98778.22;2618636;46;19962;-67
2022/08/13 11:28:16;;;;;;;;;;;;;;;28.32;25.21;98771.03;2618473;54;19973;-67
2022/08/13 11:30:47;;;;;;;;;;;;;;;28.38;25.30;98778.00;2618463;54;19962;-67
2022/08/13 11:33:17;;;;;;;;;;;;;;;28.46;25.32;98781.09;2618213;54;19939;-67
2022/08/13 11:35:47;;;;;;;;;;;;;;;28.36;25.33;98772.06;2618344;54;19943;-67
2022/08/13 11:38:19;;;;;;;;;;;;;;;28.33;25.47;98764.50;2618237;54;19943;-67
2022/08/13 11:40:52;;;;;;;;;;;;;;;28.47;25.32;98750.84;2618297;54;19946;-66
2022/08/13 11:43:23;;;;;;;;;;;;;;;28.71;24.75;98766.03;2618250;54;19939;-68
2022/08/13 11:46:12;;;;;;;;;;;;;;;28.94;24.58;98762.09;2618348;54;19939;-66
2022/08/13 11:48:42;;;;;;;;;;;;;;;28.86;24.72;98762.88;2618303;54;19961;-67
2022/08/13 11:51:31;;;;;;;;;;;;;;;28.81;24.81;98760.28;2618596;54;19938;-68
2022/08/13 11:54:21;;;;;;;;;;;;;;;28.77;25.29;98756.59;2618000;47;19943;-67
2022/08/13 11:57:08;;;;;;;;;;;;;;;28.86;24.63;98765.59;2618265;54;19947;-67
2022/08/13 11:59:42;;;;;;;;;;;;;;;28.79;24.95;98757.91;2618405;54;19945;-66
2022/08/13 12:02:18;;;;;;;;;;;;;;;28.75;25.32;98762.34;2618572;54;19943;-67
2022/08/13 12:04:57;;;;;;;;;;;;;;;28.85;24.79;98744.94;2618439;54;19950;-68
2022/08/13 12:07:28;;;;;;;;;;;;;;;28.67;24.62;98746.00;2618136;54;19952;-67
2022/08/13 12:09:58;;;;;;;;;;;;;;;28.91;25.14;98743.69;2618266;54;19938;-67
2022/08/13 12:12:30;;;;;;;;;;;;;;;29.04;24.37;98742.00;2618219;54;19946;-67
2022/08/13 12:15:00;;;;;;;;;;;;;;;28.98;24.26;98732.38;2618407;54;19946;-67
2022/08/13 12:17:30;;;;;;;;;;;;;;;29.09;24.80;98731.78;2617632;47;19943;-67
2022/08/13 12:20:21;;;;;;;;;;;;;;;29.41;23.96;98735.19;2618634;54;19947;-67
2022/08/13 12:22:57;;;;;;;;;;;;;;;29.40;24.21;98736.34;2621509;54;19942;-69
2022/08/13 12:25:28;;;;;;;;;;;;;;;29.53;23.97;98734.59;2622524;54;19938;-69
2022/08/13 12:28:14;;;;;;;;;;;;;;;29.56;24.17;98726.59;2622334;54;20002;-68
2022/08/13 12:30:53;;;;;;;;;;;;;;;29.49;24.33;98728.16;2623849;54;19949;-67
2022/08/13 12:33:23;;;;;;;;;;;;;;;29.46;24.35;98724.16;2623791;54;20450;-67
2022/08/13 12:35:52;;;;;;;;;;;;;;;29.45;24.08;98719.03;2624061;39;20335;-67
2022/08/13 12:38:27;;;;;;;;;;;;;;;29.57;23.35;98716.50;2622820;54;19958;-67
2022/08/13 12:40:58;;;;;;;;;;;;;;;29.51;23.45;98715.03;2622404;39;20425;-68
2022/08/13 12:43:49;;;;;;;;;;;;;;;29.42;23.97;98703.31;2621510;47;20643;-67
2022/08/13 12:46:38;;;;;;;;;;;;;;;29.57;23.55;98703.69;2621218;54;20041;-66
2022/08/13 12:49:15;;;;;;;;;;;;;;;29.60;23.40;98703.06;2618460;39;20002;-67
2022/08/13 12:51:44;;;;;;;;;;;;;;;29.51;23.33;98704.13;2619035;54;20489;-67
2022/08/13 12:54:24;;;;;;;;;;;;;;;29.57;23.61;98698.25;2618206;54;20541;-66
2022/08/13 12:57:14;;;;;;;;;;;;;;;29.71;23.05;98700.00;2619204;54;19994;-66
2022/08/13 12:59:58;;;;;;;;;;;;;;;29.72;23.31;98696.16;2619511;54;19939;-67
2022/08/13 13:02:33;;;;;;;;;;;;;;;29.72;23.66;98680.63;2619408;54;19938;-66
2022/08/13 13:05:03;;;;;;;;;;;;;;;29.96;23.00;98682.00;2620131;54;19939;-66
2022/08/13 13:07:49;;;;;;;;;;;;;;;30.16;22.91;98673.19;2620827;54;19946;-67
2022/08/13 13:10:37;;;;;;;;;;;;;;;30.20;22.12;98679.59;2619471;54;19955;-67
2022/08/13 13:13:11;;;;;;;;;;;;;;;30.18;22.01;98678.31;2618794;54;19939;-66
2022/08/13 13:16:04;;;;;;;;;;;;;;;30.16;22.05;98669.66;2618334;54;19946;-67
2022/08/13 13:18:53;;;;;;;;;;;;;;;30.35;22.89;98665.44;2618112;54;19969;-67
2022/08/13 13:21:29;;;;;;;;;;;;;;;30.51;22.43;98668.41;2617687;54;19945;-66
2022/08/13 13:24:07;;;;;;;;;;;;;;;30.76;21.93;98669.44;2618237;54;19938;-66
2022/08/13 13:26:48;;;;;;;;;;;;;;;30.36;22.06;98663.50;2617818;54;19946;-67
2022/08/13 13:29:36;;;;;;;;;;;;;;;30.49;22.37;98669.88;2618510;46;19978;-67
2022/08/13 13:32:13;;;;;;;;;;;;;;;30.73;21.97;98659.19;2617923;54;19947;-67
2022/08/13 13:35:02;;;;;;;;;;;;;;;30.89;20.87;98661.34;2618102;54;19946;-68
2022/08/13 13:37:52;;;;;;;;;;;;;;;30.83;21.23;98658.81;2617685;54;19947;-66
2022/08/13 13:40:38;;;;;;;;;;;;;;;30.87;21.50;98655.44;2617959;54;20026;-69
2022/08/13 13:43:13;;;;;;;;;;;;;;;30.89;21.38;98650.44;2618043;54;19939;-68
2022/08/13 13:45:53;;;;;;;;;;;;;;;30.95;21.22;98646.41;2617968;54;20027;-68
2022/08/13 13:48:33;;;;;;;;;;;;;;;30.90;21.00;98647.38;2617115;54;19939;-68
2022/08/13 13:51:04;;;;;;;;;;;;;;;30.98;21.32;98646.53;2617241;54;19963;-69
2022/08/13 13:53:35;;;;;;;;;;;;;;;30.94;21.38;98653.78;2617375;54;19938;-69
2022/08/13 13:56:24;;;;;;;;;;;;;;;30.94;21.54;98644.78;2617805;54;20043;-66
2022/08/13 13:58:54;;;;;;;;;;;;;;;30.98;21.60;98638.31;2618032;54;19938;-67
2022/08/13 14:01:28;;;;;;;;;;;;;;;30.90;21.27;98638.38;2617490;54;19942;-68
2022/08/13 14:04:20;;;;;;;;;;;;;;;30.84;21.40;98638.59;2618066;54;20018;-68
2022/08/13 14:06:50;;;;;;;;;;;;;;;31.06;21.26;98645.66;2617333;54;19939;-68
2022/08/13 14:09:19;;;;;;;;;;;;;;;31.15;21.15;98631.97;2617970;54;20438;-68
2022/08/13 14:11:49;;;;;;;;;;;;;;;31.37;21.11;98632.78;2617883;54;20033;-67
2022/08/13 14:14:22;;;;;;;;;;;;;;;31.36;20.94;98631.19;2618229;54;19939;-67
2022/08/13 14:16:54;;;;;;;;;;;;;;;31.37;21.00;98627.34;2617952;54;19946;-67
2022/08/13 14:19:26;;;;;;;;;;;;;;;31.59;21.39;98624.22;2617971;54;19949;-68
2022/08/13 14:22:16;;;;;;;;;;;;;;;31.58;20.73;98619.91;2618389;54;19967;-67
2022/08/13 14:24:47;;;;;;;;;;;;;;;31.53;20.58;98622.84;2618163;54;20478;-69
2022/08/13 14:27:20;;;;;;;;;;;;;;;31.43;20.67;98613.13;2617853;54;19947;-66
2022/08/13 14:29:51;;;;;;;;;;;;;;;31.41;20.61;98618.13;2617516;47;19979;-66
2022/08/13 14:32:23;;;;;;;;;;;;;;;31.44;20.51;98614.75;2618685;54;19953;-66
2022/08/13 14:35:02;;;;;;;;;;;;;;;31.44;20.70;98612.00;2619787;54;19969;-67
2022/08/13 14:37:34;;;;;;;;;;;;;;;31.46;19.74;98604.25;2619744;54;19994;-68
2022/08/13 14:40:06;;;;;;;;;;;;;;;31.42;19.96;98606.06;2619897;54;20700;-67
2022/08/13 14:42:43;;;;;;;;;;;;;;;31.43;20.28;98602.19;2620071;54;19953;-65
2022/08/13 14:45:43;;;;;;;;;;;;;;;31.50;20.42;98599.72;2620523;54;19946;-68
2022/08/13 14:48:27;;;;;;;;;;;;;;;31.79;19.81;98606.97;2620254;54;19946;-69
2022/08/13 14:51:00;;;;;;;;;;;;;;;31.77;19.87;98608.47;2620208;54;19947;-68
2022/08/13 14:53:51;;;;;;;;;;;;;;;31.65;19.82;98592.84;2620877;54;19996;-68
2022/08/13 14:56:22;;;;;;;;;;;;;;;31.73;19.97;98599.34;2619080;47;19954;-67
2022/08/13 14:58:56;;;;;;;;;;;;;;;31.81;19.70;98593.00;2619493;47;19954;-66
2022/08/13 15:01:27;;;;;;;;;;;;;;;31.77;19.70;98592.09;2620349;54;19951;-66
2022/08/13 15:04:04;;;;;;;;;;;;;;;31.63;20.15;98591.56;2620428;54;19985;-66
2022/08/13 15:06:38;;;;;;;;;;;;;;;31.56;19.53;98594.88;2620500;54;19948;-66
2022/08/13 15:09:11;;;;;;;;;;;;;;;31.61;19.45;98585.66;2620374;54;19985;-68
2022/08/13 15:11:45;;;;;;;;;;;;;;;31.66;19.88;98579.97;2620067;54;19945;-67
2022/08/13 15:14:21;;;;;;;;;;;;;;;31.81;19.56;98562.94;2620656;54;20442;-66
2022/08/13 15:16:51;;;;;;;;;;;;;;;31.97;19.18;98568.59;2620543;54;20021;-66
2022/08/13 15:19:21;;;;;;;;;;;;;;;31.83;19.43;98569.66;2620973;54;20675;-66
2022/08/13 15:21:53;;;;;;;;;;;;;;;31.67;19.67;98563.22;2620653;54;19939;-66
2022/08/13 15:24:28;;;;;;;;;;;;;;;31.54;19.82;98575.28;2619998;54;20423;-69
2022/08/13 15:27:28;;;;;;;;;;;;;;;31.39;19.99;98568.50;2619153;46;19946;-67
2022/08/13 15:30:02;;;;;;;;;;;;;;;31.54;19.46;98559.66;2619803;54;20485;-68
2022/08/13 15:32:32;;;;;;;;;;;;;;;31.61;19.37;98556.41;2619615;54;19970;-67
2022/08/13 15:35:03;;;;;;;;;;;;;;;31.67;19.29;98552.31;2618874;54;20430;-67
2022/08/13 15:37:36;;;;;;;;;;;;;;;31.76;19.67;98544.00;2619347;54;19947;-67
2022/08/13 15:40:26;;;;;;;;;;;;;;;31.86;19.59;98545.56;2619521;54;19946;-67
2022/08/13 15:43:04;;;;;;;;;;;;;;;31.84;19.66;98540.41;2619348;54;20456;-67
2022/08/13 15:45:38;;;;;;;;;;;;;;;31.75;20.16;98540.47;2618904;39;20362;-66
2022/08/13 15:48:10;;;;;;;;;;;;;;;31.67;19.93;98530.44;2618059;54;19953;-66
2022/08/13 15:50:49;;;;;;;;;;;;;;;31.67;19.80;98526.91;2618592;54;20463;-66
2022/08/13 15:53:21;;;;;;;;;;;;;;;31.72;19.74;98521.22;2619210;39;20351;-68
2022/08/13 15:55:51;;;;;;;;;;;;;;;31.71;19.81;98516.91;2618749;54;19980;-67
2022/08/13 15:58:26;;;;;;;;;;;;;;;31.69;19.80;98511.78;2617839;54;20415;-68
2022/08/13 16:01:02;;;;;;;;;;;;;;;31.70;20.07;98510.66;2619249;39;20350;-67
2022/08/13 16:03:54;;;;;;;;;;;;;;;31.79;19.70;98519.53;2619422;39;20405;-67
2022/08/13 16:06:29;;;;;;;;;;;;;;;31.78;19.73;98515.22;2618345;54;19973;-66
2022/08/13 16:09:03;;;;;;;;;;;;;;;31.82;19.70;98513.41;2618488;54;19946;-67
2022/08/13 16:11:37;;;;;;;;;;;;;;;31.90;19.34;98513.66;2618389;54;19943;-67
2022/08/13 16:14:15;;;;;;;;;;;;;;;31.80;19.32;98507.50;2618470;54;19946;-67
2022/08/13 16:16:49;;;;;;;;;;;;;;;31.74;19.27;98505.31;2619147;39;20339;-69
2022/08/13 16:19:19;;;;;;;;;;;;;;;31.73;19.69;98501.78;2618452;47;19950;-69
2022/08/13 16:22:09;;;;;;;;;;;;;;;31.55;19.53;98501.16;2618981;54;19942;-69
2022/08/13 16:24:41;;;;;;;;;;;;;;;31.63;19.71;98502.19;2618785;54;19950;-67
2022/08/13 16:27:20;;;;;;;;;;;;;;;31.76;19.53;98503.84;2619757;54;19939;-68
2022/08/13 16:29:58;;;;;;;;;;;;;;;31.91;19.33;98498.84;2620616;54;19946;-68
2022/08/13 16:32:35;;;;;;;;;;;;;;;31.88;19.54;98494.84;2618558;54;19947;-68
2022/08/13 16:35:16;;;;;;;;;;;;;;;31.87;19.52;98485.06;2617609;54;19947;-67
2022/08/13 16:37:53;;;;;;;;;;;;;;;31.97;19.66;98492.03;2617891;54;19965;-67
2022/08/13 16:40:27;;;;;;;;;;;;;;;32.00;19.37;98486.66;2618676;54;19950;-66
2022/08/13 16:43:08;;;;;;;;;;;;;;;31.99;19.29;98489.75;2618069;54;19938;-68
2022/08/13 16:45:39;;;;;;;;;;;;;;;32.03;19.33;98479.72;2618036;54;19939;-66
2022/08/13 16:48:11;;;;;;;;;;;;;;;32.13;19.15;98473.00;2617801;54;19939;-68
2022/08/13 16:50:42;;;;;;;;;;;;;;;32.16;19.17;98477.78;2617920;54;19976;-67
2022/08/13 16:53:16;;;;;;;;;;;;;;;32.20;19.09;98475.94;2618073;54;19974;-68
2022/08/13 16:56:10;;;;;;;;;;;;;;;32.36;18.74;98474.09;2617766;54;20077;-65
2022/08/13 16:58:40;;;;;;;;;;;;;;;32.26;18.88;98472.66;2617992;54;19946;-66
2022/08/13 17:01:13;;;;;;;;;;;;;;;32.24;18.93;98474.13;2617950;54;20045;-67
2022/08/13 17:09:21;;;;;;;;;;;;;;;32.47;18.77;98461.59;2617649;54;19949;-67
2022/08/13 17:12:07;;;;;;;;;;;;;;;32.66;18.38;98458.22;2617515;54;20502;-66
2022/08/13 17:14:38;;;;;;;;;;;;;;;32.65;18.31;98462.09;2618087;54;20439;-67
2022/08/13 17:17:10;;;;;;;;;;;;;;;32.74;18.61;98456.47;2618118;54;19951;-67
2022/08/13 17:19:46;;;;;;;;;;;;;;;32.85;18.03;98452.09;2617389;48;19946;-67
2022/08/13 17:22:26;;;;;;;;;;;;;;;32.85;18.06;98454.84;2618004;54;20419;-67
2022/08/13 17:24:57;;;;;;;;;;;;;;;32.85;17.66;98454.84;2618215;54;19945;-66
2022/08/13 17:27:31;;;;;;;;;;;;;;;32.77;17.98;98451.09;2618175;54;19938;-67
2022/08/13 17:30:03;;;;;;;;;;;;;;;32.75;18.11;98450.66;2618327;54;20438;-67
2022/08/13 17:32:38;;;;;;;;;;;;;;;32.64;18.04;98455.03;2618444;51;19939;-67
2022/08/13 17:35:18;;;;;;;;;;;;;;;32.57;18.32;98457.56;2618696;54;19943;-65
2022/08/13 17:37:53;;;;;;;;;;;;;;;32.61;18.58;98454.94;2618526;54;19973;-67
2022/08/13 17:40:29;;;;;;;;;;;;;;;32.66;18.56;98460.97;2618110;54;19946;-68
2022/08/13 17:43:05;;;;;;;;;;;;;;;32.66;18.36;98450.03;2618238;54;19990;-67
2022/08/13 17:45:55;;;;;;;;;;;;;;;32.88;18.17;98456.88;2618079;54;20572;-68
2022/08/13 17:48:28;;;;;;;;;;;;;;;33.00;18.28;98450.59;2617641;54;19971;-67
2022/08/13 17:51:20;;;;;;;;;;;;;;;32.98;18.17;98450.94;2617418;47;20022;-68
2022/08/13 17:53:50;;;;;;;;;;;;;;;32.86;18.62;98450.94;2617877;54;19943;-68
2022/08/13 17:56:21;;;;;;;;;;;;;;;32.45;18.56;98452.91;2617633;54;19950;-68